sensor_id;sensor_type;location;lat;lon;timestamp;temperature;humidity
39103;DHT22;24847;48.218;16.414;2023-07-02T00:00:11;21.00;99.90
39103;DHT22;24847;48.218;16.414;2023-07-02T00:05:15;20.90;99.90
39103;DHT22;24847;48.218;16.414;2023-07-02T00:10:18;21.00;99.90
39103;DHT22;24847;48.218;16.414;2023-07-02T00:15:20;20.90;99.90
39103;DHT22;24847;48.218;16.414;2023-07-02T00:20:24;20.90;99.90
39103;DHT22;24847;48.218;16.414;2023-07-02T00:25:26;20.90;99.90
39103;DHT22;24847;48.218;16.414;2023-07-02T00:30:29;21.00;99.90
39103;DHT22;24847;48.218;16.414;2023-07-02T00:35:33;20.90;99.90
39103;DHT22;24847;48.218;16.414;2023-07-02T00:40:35;20.90;99.90
39103;DHT22;24847;48.218;16.414;2023-07-02T00:45:37;20.90;99.90
39103;DHT22;24847;48.218;16.414;2023-07-02T00:50:41;20.80;99.90
39103;DHT22;24847;48.218;16.414;2023-07-02T00:55:43;20.80;99.90
39103;DHT22;24847;48.218;16.414;2023-07-02T01:00:46;20.90;99.90
39103;DHT22;24847;48.218;16.414;2023-07-02T01:05:50;20.90;99.90
39103;DHT22;24847;48.218;16.414;2023-07-02T01:10:52;20.80;99.90
39103;DHT22;24847;48.218;16.414;2023-07-02T01:15:55;20.90;99.90
39103;DHT22;24847;48.218;16.414;2023-07-02T01:20:58;20.80;99.90
39103;DHT22;24847;48.218;16.414;2023-07-02T01:26:02;20.70;99.90
39103;DHT22;24847;48.218;16.414;2023-07-02T01:31:05;20.80;99.90
39103;DHT22;24847;48.218;16.414;2023-07-02T01:36:08;20.80;99.90
39103;DHT22;24847;48.218;16.414;2023-07-02T01:41:11;20.60;99.90
39103;DHT22;24847;48.218;16.414;2023-07-02T01:46:13;20.70;99.90
39103;DHT22;24847;48.218;16.414;2023-07-02T01:51:17;20.80;99.90
39103;DHT22;24847;48.218;16.414;2023-07-02T01:56:19;20.80;99.90
39103;DHT22;24847;48.218;16.414;2023-07-02T02:01:21;20.70;99.90
39103;DHT22;24847;48.218;16.414;2023-07-02T02:06:25;20.60;99.90
39103;DHT22;24847;48.218;16.414;2023-07-02T02:11:27;20.70;99.90
39103;DHT22;24847;48.218;16.414;2023-07-02T02:16:29;20.70;99.90
39103;DHT22;24847;48.218;16.414;2023-07-02T02:21:35;20.60;99.90
39103;DHT22;24847;48.218;16.414;2023-07-02T02:26:38;20.60;99.90
39103;DHT22;24847;48.218;16.414;2023-07-02T02:31:40;20.50;99.90
39103;DHT22;24847;48.218;16.414;2023-07-02T02:36:43;20.40;99.90
39103;DHT22;24847;48.218;16.414;2023-07-02T02:41:47;20.40;99.90
39103;DHT22;24847;48.218;16.414;2023-07-02T02:46:49;20.40;99.90
39103;DHT22;24847;48.218;16.414;2023-07-02T02:51:53;20.30;99.90
39103;DHT22;24847;48.218;16.414;2023-07-02T02:56:56;20.30;99.90
39103;DHT22;24847;48.218;16.414;2023-07-02T03:01:58;20.30;99.90
39103;DHT22;24847;48.218;16.414;2023-07-02T03:07:01;20.30;99.90
39103;DHT22;24847;48.218;16.414;2023-07-02T03:12:04;20.40;99.90
39103;DHT22;24847;48.218;16.414;2023-07-02T03:17:07;20.40;99.90
39103;DHT22;24847;48.218;16.414;2023-07-02T03:22:10;20.50;99.90
39103;DHT22;24847;48.218;16.414;2023-07-02T03:27:13;20.30;99.90
39103;DHT22;24847;48.218;16.414;2023-07-02T03:32:15;20.40;99.90
39103;DHT22;24847;48.218;16.414;2023-07-02T03:37:18;20.30;99.90
39103;DHT22;24847;48.218;16.414;2023-07-02T03:42:21;20.40;99.90
39103;DHT22;24847;48.218;16.414;2023-07-02T03:47:23;20.30;99.90
39103;DHT22;24847;48.218;16.414;2023-07-02T03:52:27;20.40;99.90
39103;DHT22;24847;48.218;16.414;2023-07-02T03:57:29;20.60;99.90
39103;DHT22;24847;48.218;16.414;2023-07-02T04:02:31;20.60;99.90
39103;DHT22;24847;48.218;16.414;2023-07-02T04:07:35;20.60;99.90
39103;DHT22;24847;48.218;16.414;2023-07-02T04:12:37;20.70;99.90
39103;DHT22;24847;48.218;16.414;2023-07-02T04:17:39;20.70;99.90
39103;DHT22;24847;48.218;16.414;2023-07-02T04:22:43;20.70;99.90
39103;DHT22;24847;48.218;16.414;2023-07-02T04:27:45;20.80;99.90
39103;DHT22;24847;48.218;16.414;2023-07-02T04:32:47;20.70;99.90
39103;DHT22;24847;48.218;16.414;2023-07-02T04:37:51;21.00;99.90
39103;DHT22;24847;48.218;16.414;2023-07-02T04:42:54;21.10;99.90
39103;DHT22;24847;48.218;16.414;2023-07-02T04:47:59;21.20;99.90
39103;DHT22;24847;48.218;16.414;2023-07-02T04:53:02;20.90;99.90
39103;DHT22;24847;48.218;16.414;2023-07-02T04:58:05;20.80;99.90
39103;DHT22;24847;48.218;16.414;2023-07-02T05:03:07;20.90;99.90
39103;DHT22;24847;48.218;16.414;2023-07-02T05:08:10;21.00;99.90
39103;DHT22;24847;48.218;16.414;2023-07-02T05:13:13;20.90;99.90
39103;DHT22;24847;48.218;16.414;2023-07-02T05:18:15;20.70;99.90
39103;DHT22;24847;48.218;16.414;2023-07-02T05:23:19;20.40;99.90
39103;DHT22;24847;48.218;16.414;2023-07-02T05:28:21;20.60;99.90
39103;DHT22;24847;48.218;16.414;2023-07-02T05:33:23;20.70;99.90
39103;DHT22;24847;48.218;16.414;2023-07-02T05:38:27;20.60;99.90
39103;DHT22;24847;48.218;16.414;2023-07-02T05:43:29;20.70;99.90
39103;DHT22;24847;48.218;16.414;2023-07-02T05:48:31;20.70;99.90
39103;DHT22;24847;48.218;16.414;2023-07-02T05:53:36;20.30;99.90
39103;DHT22;24847;48.218;16.414;2023-07-02T05:58:39;20.40;99.90
39103;DHT22;24847;48.218;16.414;2023-07-02T06:03:41;20.10;99.90
39103;DHT22;24847;48.218;16.414;2023-07-02T06:08:45;20.00;99.90
39103;DHT22;24847;48.218;16.414;2023-07-02T06:13:48;20.00;99.90
39103;DHT22;24847;48.218;16.414;2023-07-02T06:18:50;20.20;99.90
39103;DHT22;24847;48.218;16.414;2023-07-02T06:23:54;20.10;99.90
39103;DHT22;24847;48.218;16.414;2023-07-02T06:28:56;20.00;99.90
39103;DHT22;24847;48.218;16.414;2023-07-02T06:33:59;20.00;99.90
39103;DHT22;24847;48.218;16.414;2023-07-02T06:39:02;20.50;99.90
39103;DHT22;24847;48.218;16.414;2023-07-02T06:44:05;20.60;99.90
39103;DHT22;24847;48.218;16.414;2023-07-02T06:49:07;21.00;99.90
39103;DHT22;24847;48.218;16.414;2023-07-02T06:54:11;21.10;99.90
39103;DHT22;24847;48.218;16.414;2023-07-02T06:59:18;21.40;99.90
39103;DHT22;24847;48.218;16.414;2023-07-02T07:04:21;21.10;99.90
39103;DHT22;24847;48.218;16.414;2023-07-02T07:09:25;21.10;99.90
39103;DHT22;24847;48.218;16.414;2023-07-02T07:14:27;21.80;99.90
39103;DHT22;24847;48.218;16.414;2023-07-02T07:19:30;22.50;99.90
39103;DHT22;24847;48.218;16.414;2023-07-02T07:24:33;23.40;99.90
39103;DHT22;24847;48.218;16.414;2023-07-02T07:29:35;24.80;99.90
39103;DHT22;24847;48.218;16.414;2023-07-02T07:34:38;25.90;99.90
39103;DHT22;24847;48.218;16.414;2023-07-02T07:39:41;26.60;99.90
39103;DHT22;24847;48.218;16.414;2023-07-02T07:44:45;26.10;99.90
39103;DHT22;24847;48.218;16.414;2023-07-02T07:49:47;26.40;99.90
39103;DHT22;24847;48.218;16.414;2023-07-02T07:54:50;27.20;99.90
39103;DHT22;24847;48.218;16.414;2023-07-02T07:59:53;26.80;99.90
39103;DHT22;24847;48.218;16.414;2023-07-02T08:04:55;26.80;99.90
39103;DHT22;24847;48.218;16.414;2023-07-02T08:09:59;24.90;99.90
39103;DHT22;24847;48.218;16.414;2023-07-02T08:15:03;25.80;99.90
39103;DHT22;24847;48.218;16.414;2023-07-02T08:20:07;26.90;99.90
39103;DHT22;24847;48.218;16.414;2023-07-02T08:25:12;27.60;99.90
39103;DHT22;24847;48.218;16.414;2023-07-02T08:30:14;27.40;99.90
39103;DHT22;24847;48.218;16.414;2023-07-02T08:35:17;27.50;99.90
39103;DHT22;24847;48.218;16.414;2023-07-02T08:40:21;27.50;99.90
39103;DHT22;24847;48.218;16.414;2023-07-02T08:45:23;27.00;99.90
39103;DHT22;24847;48.218;16.414;2023-07-02T08:50:27;26.70;99.90
39103;DHT22;24847;48.218;16.414;2023-07-02T08:55:31;27.00;99.90
39103;DHT22;24847;48.218;16.414;2023-07-02T09:00:34;26.10;99.90
39103;DHT22;24847;48.218;16.414;2023-07-02T09:05:48;25.70;99.90
39103;DHT22;24847;48.218;16.414;2023-07-02T09:10:52;26.90;99.90
39103;DHT22;24847;48.218;16.414;2023-07-02T09:15:54;27.40;99.90
39103;DHT22;24847;48.218;16.414;2023-07-02T09:20:57;27.20;99.90
39103;DHT22;24847;48.218;16.414;2023-07-02T09:26:00;26.10;99.90
39103;DHT22;24847;48.218;16.414;2023-07-02T09:31:04;25.60;99.90
39103;DHT22;24847;48.218;16.414;2023-07-02T09:36:07;25.30;99.90
39103;DHT22;24847;48.218;16.414;2023-07-02T09:41:10;24.90;99.90
39103;DHT22;24847;48.218;16.414;2023-07-02T09:46:12;25.10;99.90
39103;DHT22;24847;48.218;16.414;2023-07-02T09:51:15;25.50;99.90
39103;DHT22;24847;48.218;16.414;2023-07-02T09:56:18;25.50;99.90
39103;DHT22;24847;48.218;16.414;2023-07-02T10:01:22;25.40;99.90
39103;DHT22;24847;48.218;16.414;2023-07-02T10:06:24;25.60;99.90
39103;DHT22;24847;48.218;16.414;2023-07-02T10:11:34;25.30;99.90
39103;DHT22;24847;48.218;16.414;2023-07-02T10:16:49;24.70;99.90
39103;DHT22;24847;48.218;16.414;2023-07-02T10:22:01;24.30;99.90
39103;DHT22;24847;48.218;16.414;2023-07-02T10:27:05;25.00;99.90
39103;DHT22;24847;48.218;16.414;2023-07-02T10:32:08;25.50;99.90
39103;DHT22;24847;48.218;16.414;2023-07-02T10:37:11;25.20;99.90
39103;DHT22;24847;48.218;16.414;2023-07-02T10:42:14;25.50;99.90
39103;DHT22;24847;48.218;16.414;2023-07-02T10:47:17;25.60;99.90
39103;DHT22;24847;48.218;16.414;2023-07-02T10:52:19;25.80;99.90
39103;DHT22;24847;48.218;16.414;2023-07-02T10:57:23;25.70;99.90
39103;DHT22;24847;48.218;16.414;2023-07-02T11:02:33;25.10;99.90
39103;DHT22;24847;48.218;16.414;2023-07-02T11:07:36;25.10;99.90
39103;DHT22;24847;48.218;16.414;2023-07-02T11:12:40;25.00;99.90
39103;DHT22;24847;48.218;16.414;2023-07-02T11:17:42;25.10;99.90
39103;DHT22;24847;48.218;16.414;2023-07-02T11:22:45;25.30;99.90
39103;DHT22;24847;48.218;16.414;2023-07-02T11:27:49;25.00;99.90
39103;DHT22;24847;48.218;16.414;2023-07-02T11:32:54;25.00;99.90
39103;DHT22;24847;48.218;16.414;2023-07-02T11:37:56;25.00;99.90
39103;DHT22;24847;48.218;16.414;2023-07-02T11:43:00;25.00;99.90
39103;DHT22;24847;48.218;16.414;2023-07-02T11:48:03;24.90;99.90
39103;DHT22;24847;48.218;16.414;2023-07-02T11:53:07;25.10;99.90
39103;DHT22;24847;48.218;16.414;2023-07-02T11:58:11;24.70;99.90
39103;DHT22;24847;48.218;16.414;2023-07-02T12:03:13;24.50;99.90
39103;DHT22;24847;48.218;16.414;2023-07-02T12:08:15;24.50;99.90
39103;DHT22;24847;48.218;16.414;2023-07-02T12:13:19;24.40;99.90
39103;DHT22;24847;48.218;16.414;2023-07-02T12:18:21;24.30;99.90
39103;DHT22;24847;48.218;16.414;2023-07-02T12:23:24;24.60;99.90
39103;DHT22;24847;48.218;16.414;2023-07-02T12:28:27;24.40;99.90
39103;DHT22;24847;48.218;16.414;2023-07-02T12:33:29;24.20;99.90
39103;DHT22;24847;48.218;16.414;2023-07-02T12:38:32;24.00;99.90
39103;DHT22;24847;48.218;16.414;2023-07-02T12:43:35;24.10;99.90
39103;DHT22;24847;48.218;16.414;2023-07-02T12:48:38;24.20;99.90
39103;DHT22;24847;48.218;16.414;2023-07-02T12:53:40;24.40;99.90
39103;DHT22;24847;48.218;16.414;2023-07-02T12:58:44;24.40;99.90
39103;DHT22;24847;48.218;16.414;2023-07-02T13:03:47;24.40;99.90
39103;DHT22;24847;48.218;16.414;2023-07-02T13:08:51;24.10;99.90
39103;DHT22;24847;48.218;16.414;2023-07-02T13:13:58;24.30;99.90
39103;DHT22;24847;48.218;16.414;2023-07-02T13:19:03;24.40;99.90
39103;DHT22;24847;48.218;16.414;2023-07-02T13:24:06;24.20;99.90
39103;DHT22;24847;48.218;16.414;2023-07-02T13:29:11;24.20;99.90
39103;DHT22;24847;48.218;16.414;2023-07-02T13:34:15;23.80;99.90
39103;DHT22;24847;48.218;16.414;2023-07-02T13:39:18;23.70;99.90
39103;DHT22;24847;48.218;16.414;2023-07-02T13:44:22;23.70;99.90
39103;DHT22;24847;48.218;16.414;2023-07-02T13:49:26;23.80;99.90
39103;DHT22;24847;48.218;16.414;2023-07-02T13:54:29;23.90;99.90
39103;DHT22;24847;48.218;16.414;2023-07-02T13:59:34;23.70;99.90
39103;DHT22;24847;48.218;16.414;2023-07-02T14:04:38;23.80;99.90
39103;DHT22;24847;48.218;16.414;2023-07-02T14:09:41;23.90;99.90
39103;DHT22;24847;48.218;16.414;2023-07-02T14:14:45;23.80;99.90
39103;DHT22;24847;48.218;16.414;2023-07-02T14:19:48;23.80;99.90
39103;DHT22;24847;48.218;16.414;2023-07-02T14:24:52;23.60;99.90
39103;DHT22;24847;48.218;16.414;2023-07-02T14:29:58;23.70;99.90
39103;DHT22;24847;48.218;16.414;2023-07-02T14:35:06;23.70;99.90
39103;DHT22;24847;48.218;16.414;2023-07-02T14:40:11;23.70;99.90
39103;DHT22;24847;48.218;16.414;2023-07-02T14:45:16;23.70;99.90
39103;DHT22;24847;48.218;16.414;2023-07-02T14:50:19;23.60;99.90
39103;DHT22;24847;48.218;16.414;2023-07-02T14:55:22;23.70;99.90
39103;DHT22;24847;48.218;16.414;2023-07-02T15:00:25;23.70;99.90
39103;DHT22;24847;48.218;16.414;2023-07-02T15:05:28;23.70;99.90
39103;DHT22;24847;48.218;16.414;2023-07-02T15:10:30;23.80;99.90
39103;DHT22;24847;48.218;16.414;2023-07-02T15:15:34;23.80;99.90
39103;DHT22;24847;48.218;16.414;2023-07-02T15:20:37;23.90;99.90
39103;DHT22;24847;48.218;16.414;2023-07-02T15:25:40;23.70;99.90
39103;DHT22;24847;48.218;16.414;2023-07-02T15:30:44;23.80;99.90
39103;DHT22;24847;48.218;16.414;2023-07-02T15:35:46;23.90;99.90
39103;DHT22;24847;48.218;16.414;2023-07-02T15:40:49;24.00;99.90
39103;DHT22;24847;48.218;16.414;2023-07-02T15:45:55;23.80;99.90
39103;DHT22;24847;48.218;16.414;2023-07-02T15:50:58;23.80;99.90
39103;DHT22;24847;48.218;16.414;2023-07-02T15:56:01;23.70;99.90
39103;DHT22;24847;48.218;16.414;2023-07-02T16:01:13;24.10;99.90
39103;DHT22;24847;48.218;16.414;2023-07-02T16:06:17;23.80;99.90
39103;DHT22;24847;48.218;16.414;2023-07-02T16:11:19;23.50;99.90
39103;DHT22;24847;48.218;16.414;2023-07-02T16:16:23;23.30;99.90
39103;DHT22;24847;48.218;16.414;2023-07-02T16:21:25;23.50;99.90
39103;DHT22;24847;48.218;16.414;2023-07-02T16:26:28;23.70;99.90
39103;DHT22;24847;48.218;16.414;2023-07-02T16:31:31;23.50;99.90
39103;DHT22;24847;48.218;16.414;2023-07-02T16:36:34;23.50;99.90
39103;DHT22;24847;48.218;16.414;2023-07-02T16:41:38;23.50;99.90
39103;DHT22;24847;48.218;16.414;2023-07-02T16:46:50;23.50;99.90
39103;DHT22;24847;48.218;16.414;2023-07-02T16:51:54;23.50;99.90
39103;DHT22;24847;48.218;16.414;2023-07-02T16:56:59;23.50;99.90
39103;DHT22;24847;48.218;16.414;2023-07-02T17:02:06;22.60;99.90
39103;DHT22;24847;48.218;16.414;2023-07-02T17:07:09;22.80;99.90
39103;DHT22;24847;48.218;16.414;2023-07-02T17:12:14;22.70;99.90
39103;DHT22;24847;48.218;16.414;2023-07-02T17:17:20;22.40;99.90
39103;DHT22;24847;48.218;16.414;2023-07-02T17:22:27;22.30;99.90
39103;DHT22;24847;48.218;16.414;2023-07-02T17:27:32;22.20;99.90
39103;DHT22;24847;48.218;16.414;2023-07-02T17:32:37;22.10;99.90
39103;DHT22;24847;48.218;16.414;2023-07-02T17:37:40;22.00;99.90
39103;DHT22;24847;48.218;16.414;2023-07-02T17:42:45;21.90;99.90
39103;DHT22;24847;48.218;16.414;2023-07-02T17:47:50;22.00;99.90
39103;DHT22;24847;48.218;16.414;2023-07-02T17:52:53;21.80;99.90
39103;DHT22;24847;48.218;16.414;2023-07-02T17:57:56;21.70;99.90
39103;DHT22;24847;48.218;16.414;2023-07-02T18:03:00;21.70;99.90
39103;DHT22;24847;48.218;16.414;2023-07-02T18:08:04;21.70;99.90
39103;DHT22;24847;48.218;16.414;2023-07-02T18:13:08;21.60;99.90
39103;DHT22;24847;48.218;16.414;2023-07-02T18:18:14;21.70;99.90
39103;DHT22;24847;48.218;16.414;2023-07-02T18:23:16;21.60;99.90
39103;DHT22;24847;48.218;16.414;2023-07-02T18:28:23;21.70;99.90
39103;DHT22;24847;48.218;16.414;2023-07-02T18:33:30;21.50;99.90
39103;DHT22;24847;48.218;16.414;2023-07-02T18:38:33;21.50;99.90
39103;DHT22;24847;48.218;16.414;2023-07-02T18:43:37;21.40;99.90
39103;DHT22;24847;48.218;16.414;2023-07-02T18:48:42;21.40;99.90
39103;DHT22;24847;48.218;16.414;2023-07-02T18:53:45;21.40;99.90
39103;DHT22;24847;48.218;16.414;2023-07-02T18:58:50;21.40;99.90
39103;DHT22;24847;48.218;16.414;2023-07-02T19:03:54;21.20;99.90
39103;DHT22;24847;48.218;16.414;2023-07-02T19:08:58;21.20;99.90
39103;DHT22;24847;48.218;16.414;2023-07-02T19:14:01;21.30;99.90
39103;DHT22;24847;48.218;16.414;2023-07-02T19:19:05;21.20;99.90
39103;DHT22;24847;48.218;16.414;2023-07-02T19:24:09;21.20;99.90
39103;DHT22;24847;48.218;16.414;2023-07-02T19:29:12;21.20;99.90
39103;DHT22;24847;48.218;16.414;2023-07-02T19:34:18;21.10;99.90
39103;DHT22;24847;48.218;16.414;2023-07-02T19:39:22;21.00;99.90
39103;DHT22;24847;48.218;16.414;2023-07-02T19:44:25;21.00;99.90
39103;DHT22;24847;48.218;16.414;2023-07-02T19:49:31;21.00;99.90
39103;DHT22;24847;48.218;16.414;2023-07-02T19:54:34;21.00;99.90
39103;DHT22;24847;48.218;16.414;2023-07-02T19:59:40;21.00;99.90
39103;DHT22;24847;48.218;16.414;2023-07-02T20:04:46;21.00;99.90
39103;DHT22;24847;48.218;16.414;2023-07-02T20:09:50;20.90;99.90
39103;DHT22;24847;48.218;16.414;2023-07-02T20:14:53;20.90;99.90
39103;DHT22;24847;48.218;16.414;2023-07-02T20:19:59;20.90;99.90
39103;DHT22;24847;48.218;16.414;2023-07-02T20:25:02;20.80;99.90
39103;DHT22;24847;48.218;16.414;2023-07-02T20:30:07;20.80;99.90
39103;DHT22;24847;48.218;16.414;2023-07-02T20:35:15;20.80;99.90
39103;DHT22;24847;48.218;16.414;2023-07-02T20:40:20;20.80;99.90
39103;DHT22;24847;48.218;16.414;2023-07-02T20:45:26;20.80;99.90
39103;DHT22;24847;48.218;16.414;2023-07-02T20:50:32;20.80;99.90
39103;DHT22;24847;48.218;16.414;2023-07-02T20:55:37;20.70;99.90
39103;DHT22;24847;48.218;16.414;2023-07-02T21:00:39;20.60;99.90
39103;DHT22;24847;48.218;16.414;2023-07-02T21:05:43;20.70;99.90
39103;DHT22;24847;48.218;16.414;2023-07-02T21:10:46;20.60;99.90
39103;DHT22;24847;48.218;16.414;2023-07-02T21:15:55;20.60;99.90
39103;DHT22;24847;48.218;16.414;2023-07-02T21:20:59;20.50;99.90
39103;DHT22;24847;48.218;16.414;2023-07-02T21:26:02;20.60;99.90
39103;DHT22;24847;48.218;16.414;2023-07-02T21:31:05;20.60;99.90
39103;DHT22;24847;48.218;16.414;2023-07-02T21:36:08;20.50;99.90
39103;DHT22;24847;48.218;16.414;2023-07-02T21:41:11;20.50;99.90
39103;DHT22;24847;48.218;16.414;2023-07-02T21:46:14;20.40;99.90
39103;DHT22;24847;48.218;16.414;2023-07-02T21:51:21;20.40;99.90
39103;DHT22;24847;48.218;16.414;2023-07-02T21:56:23;20.50;99.90
39103;DHT22;24847;48.218;16.414;2023-07-02T22:01:26;20.40;99.90
39103;DHT22;24847;48.218;16.414;2023-07-02T22:06:30;20.40;99.90
39103;DHT22;24847;48.218;16.414;2023-07-02T22:11:32;20.30;99.90
39103;DHT22;24847;48.218;16.414;2023-07-02T22:16:35;20.40;99.90
39103;DHT22;24847;48.218;16.414;2023-07-02T22:21:38;20.40;99.90
39103;DHT22;24847;48.218;16.414;2023-07-02T22:26:45;20.30;99.90
39103;DHT22;24847;48.218;16.414;2023-07-02T22:31:47;20.30;99.90
39103;DHT22;24847;48.218;16.414;2023-07-02T22:36:51;20.30;99.90
39103;DHT22;24847;48.218;16.414;2023-07-02T22:41:53;20.30;99.90
39103;DHT22;24847;48.218;16.414;2023-07-02T22:46:56;20.20;99.90
39103;DHT22;24847;48.218;16.414;2023-07-02T22:52:00;20.20;99.90
39103;DHT22;24847;48.218;16.414;2023-07-02T22:57:03;20.10;99.90
39103;DHT22;24847;48.218;16.414;2023-07-02T23:02:07;20.10;99.90
39103;DHT22;24847;48.218;16.414;2023-07-02T23:07:11;20.10;99.90
39103;DHT22;24847;48.218;16.414;2023-07-02T23:12:13;20.10;99.90
39103;DHT22;24847;48.218;16.414;2023-07-02T23:17:15;20.00;99.90
39103;DHT22;24847;48.218;16.414;2023-07-02T23:22:25;19.80;99.90
39103;DHT22;24847;48.218;16.414;2023-07-02T23:27:28;19.80;99.90
39103;DHT22;24847;48.218;16.414;2023-07-02T23:32:30;19.70;99.90
39103;DHT22;24847;48.218;16.414;2023-07-02T23:37:34;19.50;99.90
39103;DHT22;24847;48.218;16.414;2023-07-02T23:42:38;19.40;99.90
39103;DHT22;24847;48.218;16.414;2023-07-02T23:47:41;19.30;99.90
39103;DHT22;24847;48.218;16.414;2023-07-02T23:52:45;19.10;99.90
39103;DHT22;24847;48.218;16.414;2023-07-02T23:57:48;19.00;99.90
